sensor_id;sensor_type;location;lat;lon;timestamp;P1;P2;P0
29460;PMS7003;16428;47.836;35.106;2024-01-30T00:02:16;20.25;19.50;13.00
29460;PMS7003;16428;47.836;35.106;2024-01-30T00:04:44;23.00;16.75;14.00
29460;PMS7003;16428;47.836;35.106;2024-01-30T00:07:11;25.00;22.25;16.00
29460;PMS7003;16428;47.836;35.106;2024-01-30T00:09:38;25.25;20.25;15.50
29460;PMS7003;16428;47.836;35.106;2024-01-30T00:12:06;25.75;20.50;17.75
29460;PMS7003;16428;47.836;35.106;2024-01-30T00:14:34;34.25;28.75;22.25
29460;PMS7003;16428;47.836;35.106;2024-01-30T00:17:01;27.25;24.00;19.00
29460;PMS7003;16428;47.836;35.106;2024-01-30T00:19:28;25.00;19.75;12.75
29460;PMS7003;16428;47.836;35.106;2024-01-30T00:21:55;22.00;20.75;16.75
29460;PMS7003;16428;47.836;35.106;2024-01-30T00:24:22;33.00;22.50;16.00
29460;PMS7003;16428;47.836;35.106;2024-01-30T00:26:49;27.00;24.50;18.75
29460;PMS7003;16428;47.836;35.106;2024-01-30T00:29:16;30.50;26.00;16.25
29460;PMS7003;16428;47.836;35.106;2024-01-30T00:31:46;30.25;24.00;15.50
29460;PMS7003;16428;47.836;35.106;2024-01-30T00:34:13;18.50;17.00;13.00
29460;PMS7003;16428;47.836;35.106;2024-01-30T00:36:40;22.00;19.50;12.75
29460;PMS7003;16428;47.836;35.106;2024-01-30T00:39:07;18.75;15.75;11.00
29460;PMS7003;16428;47.836;35.106;2024-01-30T00:41:35;16.25;12.75;10.50
29460;PMS7003;16428;47.836;35.106;2024-01-30T00:44:03;20.50;17.50;14.00
29460;PMS7003;16428;47.836;35.106;2024-01-30T00:46:30;18.50;18.25;12.50
29460;PMS7003;16428;47.836;35.106;2024-01-30T00:48:57;21.25;20.25;16.00
29460;PMS7003;16428;47.836;35.106;2024-01-30T00:51:24;17.75;15.00;11.00
29460;PMS7003;16428;47.836;35.106;2024-01-30T00:53:51;18.00;18.00;15.00
29460;PMS7003;16428;47.836;35.106;2024-01-30T00:56:18;26.00;21.00;15.50
29460;PMS7003;16428;47.836;35.106;2024-01-30T00:58:46;15.25;13.00;10.50
29460;PMS7003;16428;47.836;35.106;2024-01-30T01:01:13;24.00;17.75;15.00
29460;PMS7003;16428;47.836;35.106;2024-01-30T01:03:41;23.25;14.75;11.75
29460;PMS7003;16428;47.836;35.106;2024-01-30T01:06:10;17.50;17.50;14.50
29460;PMS7003;16428;47.836;35.106;2024-01-30T01:08:37;22.50;21.50;15.25
29460;PMS7003;16428;47.836;35.106;2024-01-30T01:11:05;20.00;15.75;12.75
29460;PMS7003;16428;47.836;35.106;2024-01-30T01:13:32;20.50;20.50;16.25
29460;PMS7003;16428;47.836;35.106;2024-01-30T01:15:59;16.25;12.25;7.50
29460;PMS7003;16428;47.836;35.106;2024-01-30T01:18:26;25.50;21.00;16.00
29460;PMS7003;16428;47.836;35.106;2024-01-30T01:20:54;23.25;19.75;15.00
29460;PMS7003;16428;47.836;35.106;2024-01-30T01:23:21;21.25;21.25;16.50
29460;PMS7003;16428;47.836;35.106;2024-01-30T01:25:48;24.50;21.50;15.75
29460;PMS7003;16428;47.836;35.106;2024-01-30T01:28:15;22.25;21.25;17.00
29460;PMS7003;16428;47.836;35.106;2024-01-30T01:30:42;23.25;19.50;15.25
29460;PMS7003;16428;47.836;35.106;2024-01-30T01:33:09;26.75;21.25;16.00
29460;PMS7003;16428;47.836;35.106;2024-01-30T01:35:41;21.25;13.75;6.00
29460;PMS7003;16428;47.836;35.106;2024-01-30T01:38:08;30.25;23.50;19.25
29460;PMS7003;16428;47.836;35.106;2024-01-30T01:40:36;25.75;20.25;14.00
29460;PMS7003;16428;47.836;35.106;2024-01-30T01:43:06;21.00;17.00;11.00
29460;PMS7003;16428;47.836;35.106;2024-01-30T01:45:33;27.50;18.00;13.25
29460;PMS7003;16428;47.836;35.106;2024-01-30T01:48:00;18.50;18.50;13.75
29460;PMS7003;16428;47.836;35.106;2024-01-30T01:50:27;22.25;16.75;13.50
29460;PMS7003;16428;47.836;35.106;2024-01-30T01:52:55;24.75;19.50;16.00
29460;PMS7003;16428;47.836;35.106;2024-01-30T01:55:23;16.25;16.25;11.25
29460;PMS7003;16428;47.836;35.106;2024-01-30T01:57:53;23.25;16.00;12.00
29460;PMS7003;16428;47.836;35.106;2024-01-30T02:00:21;20.00;18.50;12.00
29460;PMS7003;16428;47.836;35.106;2024-01-30T02:02:48;23.00;14.75;8.25
29460;PMS7003;16428;47.836;35.106;2024-01-30T02:05:16;22.25;15.75;14.25
29460;PMS7003;16428;47.836;35.106;2024-01-30T02:07:43;23.50;20.25;15.25
29460;PMS7003;16428;47.836;35.106;2024-01-30T02:10:11;24.25;22.75;16.50
29460;PMS7003;16428;47.836;35.106;2024-01-30T02:12:38;25.75;19.00;17.75
29460;PMS7003;16428;47.836;35.106;2024-01-30T02:15:07;19.75;19.75;16.00
29460;PMS7003;16428;47.836;35.106;2024-01-30T02:17:34;18.25;18.25;14.00
29460;PMS7003;16428;47.836;35.106;2024-01-30T02:20:02;20.25;19.25;14.25
29460;PMS7003;16428;47.836;35.106;2024-01-30T02:22:31;27.00;20.75;16.25
29460;PMS7003;16428;47.836;35.106;2024-01-30T02:25:00;24.75;16.50;15.25
29460;PMS7003;16428;47.836;35.106;2024-01-30T02:27:28;23.00;21.00;16.50
29460;PMS7003;16428;47.836;35.106;2024-01-30T02:29:55;19.25;15.75;8.50
29460;PMS7003;16428;47.836;35.106;2024-01-30T02:32:22;29.75;22.25;16.00
29460;PMS7003;16428;47.836;35.106;2024-01-30T02:34:49;32.50;29.00;22.50
29460;PMS7003;16428;47.836;35.106;2024-01-30T02:37:16;30.75;25.75;20.00
29460;PMS7003;16428;47.836;35.106;2024-01-30T02:39:44;27.75;26.00;20.00
29460;PMS7003;16428;47.836;35.106;2024-01-30T02:42:11;35.50;26.50;17.75
29460;PMS7003;16428;47.836;35.106;2024-01-30T02:44:38;38.25;33.75;24.75
29460;PMS7003;16428;47.836;35.106;2024-01-30T02:47:05;38.50;31.50;23.50
29460;PMS7003;16428;47.836;35.106;2024-01-30T02:49:32;37.50;34.50;21.50
29460;PMS7003;16428;47.836;35.106;2024-01-30T02:51:59;34.50;30.00;23.00
29460;PMS7003;16428;47.836;35.106;2024-01-30T02:54:26;45.75;38.50;24.75
29460;PMS7003;16428;47.836;35.106;2024-01-30T02:56:53;43.75;38.00;27.00
29460;PMS7003;16428;47.836;35.106;2024-01-30T02:59:20;36.75;35.25;21.75
29460;PMS7003;16428;47.836;35.106;2024-01-30T03:01:47;40.00;35.25;25.00
29460;PMS7003;16428;47.836;35.106;2024-01-30T03:04:14;50.25;40.25;25.50
29460;PMS7003;16428;47.836;35.106;2024-01-30T03:06:45;37.00;34.25;25.00
29460;PMS7003;16428;47.836;35.106;2024-01-30T03:09:19;42.00;34.25;22.75
29460;PMS7003;16428;47.836;35.106;2024-01-30T03:11:46;44.00;34.75;21.50
29460;PMS7003;16428;47.836;35.106;2024-01-30T03:14:13;56.75;38.00;26.25
29460;PMS7003;16428;47.836;35.106;2024-01-30T03:16:40;33.50;27.00;21.25
29460;PMS7003;16428;47.836;35.106;2024-01-30T03:19:07;51.00;40.50;29.00
29460;PMS7003;16428;47.836;35.106;2024-01-30T03:21:37;48.25;41.25;29.50
29460;PMS7003;16428;47.836;35.106;2024-01-30T03:24:04;55.50;45.25;31.75
29460;PMS7003;16428;47.836;35.106;2024-01-30T03:26:31;64.00;49.75;34.50
29460;PMS7003;16428;47.836;35.106;2024-01-30T03:28:58;62.25;45.25;32.00
29460;PMS7003;16428;47.836;35.106;2024-01-30T03:31:25;60.67;48.00;30.00
29460;PMS7003;16428;47.836;35.106;2024-01-30T03:33:52;65.33;46.00;32.00
29460;PMS7003;16428;47.836;35.106;2024-01-30T03:36:20;59.33;45.67;30.00
29460;PMS7003;16428;47.836;35.106;2024-01-30T03:38:47;53.33;44.33;27.33
29460;PMS7003;16428;47.836;35.106;2024-01-30T03:41:14;61.00;49.67;34.33
29460;PMS7003;16428;47.836;35.106;2024-01-30T03:43:41;62.00;50.67;34.33
29460;PMS7003;16428;47.836;35.106;2024-01-30T03:46:08;63.00;52.67;35.00
29460;PMS7003;16428;47.836;35.106;2024-01-30T03:48:36;76.33;52.33;35.00
29460;PMS7003;16428;47.836;35.106;2024-01-30T03:51:02;63.00;50.00;32.00
29460;PMS7003;16428;47.836;35.106;2024-01-30T03:53:30;50.00;40.00;25.67
29460;PMS7003;16428;47.836;35.106;2024-01-30T03:55:57;64.67;51.33;35.00
29460;PMS7003;16428;47.836;35.106;2024-01-30T03:58:24;64.00;49.33;34.67
29460;PMS7003;16428;47.836;35.106;2024-01-30T04:00:52;62.00;49.67;34.00
29460;PMS7003;16428;47.836;35.106;2024-01-30T04:03:19;62.33;48.33;32.00
29460;PMS7003;16428;47.836;35.106;2024-01-30T04:05:46;61.33;51.00;34.67
29460;PMS7003;16428;47.836;35.106;2024-01-30T04:08:13;55.67;46.00;29.00
29460;PMS7003;16428;47.836;35.106;2024-01-30T04:10:41;63.00;52.33;34.33
29460;PMS7003;16428;47.836;35.106;2024-01-30T04:13:08;56.67;48.33;34.00
29460;PMS7003;16428;47.836;35.106;2024-01-30T04:15:38;62.00;48.33;29.67
29460;PMS7003;16428;47.836;35.106;2024-01-30T04:18:06;58.67;46.33;32.00
29460;PMS7003;16428;47.836;35.106;2024-01-30T04:20:33;59.67;46.67;32.00
29460;PMS7003;16428;47.836;35.106;2024-01-30T04:23:00;74.33;49.67;32.67
29460;PMS7003;16428;47.836;35.106;2024-01-30T04:25:27;62.00;47.00;33.67
29460;PMS7003;16428;47.836;35.106;2024-01-30T04:27:54;62.67;50.67;34.67
29460;PMS7003;16428;47.836;35.106;2024-01-30T04:30:21;62.67;50.33;34.67
29460;PMS7003;16428;47.836;35.106;2024-01-30T04:32:48;52.67;43.33;26.67
29460;PMS7003;16428;47.836;35.106;2024-01-30T04:35:15;61.00;48.33;31.33
29460;PMS7003;16428;47.836;35.106;2024-01-30T04:37:43;70.33;54.33;35.33
29460;PMS7003;16428;47.836;35.106;2024-01-30T04:40:10;66.33;54.67;35.67
29460;PMS7003;16428;47.836;35.106;2024-01-30T04:42:37;58.67;47.67;34.00
29460;PMS7003;16428;47.836;35.106;2024-01-30T04:45:05;61.67;48.67;34.00
29460;PMS7003;16428;47.836;35.106;2024-01-30T04:47:34;54.00;46.33;29.67
29460;PMS7003;16428;47.836;35.106;2024-01-30T04:50:01;60.00;51.00;32.33
29460;PMS7003;16428;47.836;35.106;2024-01-30T04:52:31;70.67;54.33;34.67
29460;PMS7003;16428;47.836;35.106;2024-01-30T04:54:58;63.00;49.67;33.00
29460;PMS7003;16428;47.836;35.106;2024-01-30T04:57:26;60.67;47.33;31.33
29460;PMS7003;16428;47.836;35.106;2024-01-30T04:59:53;61.67;49.33;34.33
29460;PMS7003;16428;47.836;35.106;2024-01-30T05:02:20;61.67;50.67;33.33
29460;PMS7003;16428;47.836;35.106;2024-01-30T05:04:47;61.67;50.67;35.00
29460;PMS7003;16428;47.836;35.106;2024-01-30T05:07:14;64.00;50.67;32.00
29460;PMS7003;16428;47.836;35.106;2024-01-30T05:09:41;69.33;54.00;34.67
29460;PMS7003;16428;47.836;35.106;2024-01-30T05:12:08;68.00;53.33;35.67
29460;PMS7003;16428;47.836;35.106;2024-01-30T05:14:35;62.33;51.33;34.00
29460;PMS7003;16428;47.836;35.106;2024-01-30T05:17:02;69.00;50.33;34.67
29460;PMS7003;16428;47.836;35.106;2024-01-30T05:19:29;69.00;55.33;38.00
29460;PMS7003;16428;47.836;35.106;2024-01-30T05:21:57;84.33;66.00;44.67
29460;PMS7003;16428;47.836;35.106;2024-01-30T05:24:24;84.67;66.00;49.00
29460;PMS7003;16428;47.836;35.106;2024-01-30T05:26:53;68.33;50.33;33.00
29460;PMS7003;16428;47.836;35.106;2024-01-30T05:29:20;78.67;57.33;39.33
29460;PMS7003;16428;47.836;35.106;2024-01-30T05:31:48;72.67;58.33;39.00
29460;PMS7003;16428;47.836;35.106;2024-01-30T05:34:15;83.00;63.67;45.00
29460;PMS7003;16428;47.836;35.106;2024-01-30T05:36:43;80.00;62.00;40.67
29460;PMS7003;16428;47.836;35.106;2024-01-30T05:39:10;70.67;54.67;37.67
29460;PMS7003;16428;47.836;35.106;2024-01-30T05:41:37;76.67;59.00;40.00
29460;PMS7003;16428;47.836;35.106;2024-01-30T05:44:04;71.67;55.00;37.67
29460;PMS7003;16428;47.836;35.106;2024-01-30T05:46:31;67.00;51.33;34.67
29460;PMS7003;16428;47.836;35.106;2024-01-30T05:48:58;71.33;53.67;36.67
29460;PMS7003;16428;47.836;35.106;2024-01-30T05:51:25;63.00;52.00;34.33
29460;PMS7003;16428;47.836;35.106;2024-01-30T05:53:52;66.33;50.67;35.33
29460;PMS7003;16428;47.836;35.106;2024-01-30T05:56:19;60.67;49.67;34.00
29460;PMS7003;16428;47.836;35.106;2024-01-30T05:58:47;62.67;47.33;33.67
29460;PMS7003;16428;47.836;35.106;2024-01-30T06:01:14;59.67;45.67;31.67
29460;PMS7003;16428;47.836;35.106;2024-01-30T06:03:41;59.67;46.33;31.00
29460;PMS7003;16428;47.836;35.106;2024-01-30T06:06:10;62.33;51.00;33.67
29460;PMS7003;16428;47.836;35.106;2024-01-30T06:08:37;57.33;48.33;32.67
29460;PMS7003;16428;47.836;35.106;2024-01-30T06:11:04;61.00;49.00;32.33
29460;PMS7003;16428;47.836;35.106;2024-01-30T06:13:31;62.67;50.33;35.67
29460;PMS7003;16428;47.836;35.106;2024-01-30T06:15:58;62.33;52.33;34.67
29460;PMS7003;16428;47.836;35.106;2024-01-30T06:18:25;62.00;47.33;32.67
29460;PMS7003;16428;47.836;35.106;2024-01-30T06:20:53;71.33;53.33;35.00
29460;PMS7003;16428;47.836;35.106;2024-01-30T06:23:20;74.00;57.67;38.33
29460;PMS7003;16428;47.836;35.106;2024-01-30T06:25:47;68.67;54.00;35.67
29460;PMS7003;16428;47.836;35.106;2024-01-30T06:28:14;59.67;49.00;34.00
29460;PMS7003;16428;47.836;35.106;2024-01-30T06:30:42;59.00;48.00;32.33
29460;PMS7003;16428;47.836;35.106;2024-01-30T06:33:11;64.67;51.33;35.67
29460;PMS7003;16428;47.836;35.106;2024-01-30T06:35:40;45.00;38.67;24.00
29460;PMS7003;16428;47.836;35.106;2024-01-30T06:38:10;61.67;51.00;34.00
29460;PMS7003;16428;47.836;35.106;2024-01-30T06:40:37;60.33;47.67;32.67
29460;PMS7003;16428;47.836;35.106;2024-01-30T06:43:04;60.00;50.67;33.67
29460;PMS7003;16428;47.836;35.106;2024-01-30T06:45:31;64.00;53.67;34.67
29460;PMS7003;16428;47.836;35.106;2024-01-30T06:47:58;79.67;61.67;41.00
29460;PMS7003;16428;47.836;35.106;2024-01-30T06:50:26;75.00;59.33;39.33
29460;PMS7003;16428;47.836;35.106;2024-01-30T06:52:53;72.67;55.00;36.33
29460;PMS7003;16428;47.836;35.106;2024-01-30T06:55:20;69.67;56.00;35.67
29460;PMS7003;16428;47.836;35.106;2024-01-30T06:57:47;68.33;56.00;33.00
29460;PMS7003;16428;47.836;35.106;2024-01-30T07:00:17;75.67;53.67;36.67
29460;PMS7003;16428;47.836;35.106;2024-01-30T07:02:46;78.67;57.00;37.00
29460;PMS7003;16428;47.836;35.106;2024-01-30T07:05:13;60.00;47.67;30.00
29460;PMS7003;16428;47.836;35.106;2024-01-30T07:07:41;59.33;43.67;30.00
29460;PMS7003;16428;47.836;35.106;2024-01-30T07:10:08;64.00;51.67;33.67
29460;PMS7003;16428;47.836;35.106;2024-01-30T07:12:35;73.33;61.00;39.00
29460;PMS7003;16428;47.836;35.106;2024-01-30T07:15:03;62.67;41.67;29.67
29460;PMS7003;16428;47.836;35.106;2024-01-30T07:17:31;63.67;47.33;29.33
29460;PMS7003;16428;47.836;35.106;2024-01-30T07:19:57;59.00;45.33;30.67
29460;PMS7003;16428;47.836;35.106;2024-01-30T07:22:25;49.00;43.00;30.00
29460;PMS7003;16428;47.836;35.106;2024-01-30T07:24:52;56.33;47.00;29.00
29460;PMS7003;16428;47.836;35.106;2024-01-30T07:27:19;67.33;49.67;31.67
29460;PMS7003;16428;47.836;35.106;2024-01-30T07:29:48;55.33;47.67;31.00
29460;PMS7003;16428;47.836;35.106;2024-01-30T07:32:15;58.00;44.00;29.67
29460;PMS7003;16428;47.836;35.106;2024-01-30T07:34:43;60.33;49.67;34.00
29460;PMS7003;16428;47.836;35.106;2024-01-30T07:37:28;58.00;47.00;30.33
29460;PMS7003;16428;47.836;35.106;2024-01-30T07:39:55;60.00;47.00;33.00
29460;PMS7003;16428;47.836;35.106;2024-01-30T07:42:23;59.67;44.00;30.67
29460;PMS7003;16428;47.836;35.106;2024-01-30T07:44:50;47.00;40.00;25.50
29460;PMS7003;16428;47.836;35.106;2024-01-30T07:47:17;43.25;36.75;25.00
29460;PMS7003;16428;47.836;35.106;2024-01-30T07:49:44;58.00;44.00;29.25
29460;PMS7003;16428;47.836;35.106;2024-01-30T07:52:11;45.00;40.50;28.00
29460;PMS7003;16428;47.836;35.106;2024-01-30T07:54:39;53.25;41.25;29.50
29460;PMS7003;16428;47.836;35.106;2024-01-30T07:57:06;47.50;35.75;26.00
29460;PMS7003;16428;47.836;35.106;2024-01-30T07:59:34;44.50;41.75;29.00
29460;PMS7003;16428;47.836;35.106;2024-01-30T08:02:01;53.50;41.00;28.50
29460;PMS7003;16428;47.836;35.106;2024-01-30T08:04:28;50.50;41.75;29.00
29460;PMS7003;16428;47.836;35.106;2024-01-30T08:06:55;40.25;38.25;29.00
29460;PMS7003;16428;47.836;35.106;2024-01-30T08:09:22;43.75;36.25;26.25
29460;PMS7003;16428;47.836;35.106;2024-01-30T08:11:49;50.50;41.50;27.00
29460;PMS7003;16428;47.836;35.106;2024-01-30T08:14:17;43.25;39.50;29.50
29460;PMS7003;16428;47.836;35.106;2024-01-30T08:16:44;45.75;39.00;28.75
29460;PMS7003;16428;47.836;35.106;2024-01-30T08:19:11;45.50;34.00;25.00
29460;PMS7003;16428;47.836;35.106;2024-01-30T08:21:38;38.75;36.50;25.00
29460;PMS7003;16428;47.836;35.106;2024-01-30T08:24:06;43.75;39.00;26.00
29460;PMS7003;16428;47.836;35.106;2024-01-30T08:26:33;34.00;34.00;23.50
29460;PMS7003;16428;47.836;35.106;2024-01-30T08:29:01;48.25;40.00;25.00
29460;PMS7003;16428;47.836;35.106;2024-01-30T08:31:29;45.00;36.75;23.75
29460;PMS7003;16428;47.836;35.106;2024-01-30T08:33:57;49.75;39.25;26.25
29460;PMS7003;16428;47.836;35.106;2024-01-30T08:36:24;34.25;28.50;19.50
29460;PMS7003;16428;47.836;35.106;2024-01-30T08:38:52;38.75;36.75;26.50
29460;PMS7003;16428;47.836;35.106;2024-01-30T08:41:26;36.25;33.75;26.00
29460;PMS7003;16428;47.836;35.106;2024-01-30T08:43:53;51.25;38.25;25.00
29460;PMS7003;16428;47.836;35.106;2024-01-30T08:46:21;42.50;32.25;23.25
29460;PMS7003;16428;47.836;35.106;2024-01-30T08:48:48;35.50;34.50;25.00
29460;PMS7003;16428;47.836;35.106;2024-01-30T08:51:16;38.00;37.00;26.00
29460;PMS7003;16428;47.836;35.106;2024-01-30T08:53:43;42.50;37.25;24.25
29460;PMS7003;16428;47.836;35.106;2024-01-30T08:56:10;56.25;40.25;26.25
29460;PMS7003;16428;47.836;35.106;2024-01-30T08:58:37;32.00;25.00;19.00
29460;PMS7003;16428;47.836;35.106;2024-01-30T09:01:05;45.00;37.25;27.50
29460;PMS7003;16428;47.836;35.106;2024-01-30T09:03:33;39.50;33.75;26.25
29460;PMS7003;16428;47.836;35.106;2024-01-30T09:06:00;42.00;36.25;25.25
29460;PMS7003;16428;47.836;35.106;2024-01-30T09:08:28;39.75;31.00;23.50
29460;PMS7003;16428;47.836;35.106;2024-01-30T09:10:55;32.50;32.00;25.50
29460;PMS7003;16428;47.836;35.106;2024-01-30T09:13:23;45.75;31.00;21.75
29460;PMS7003;16428;47.836;35.106;2024-01-30T09:15:50;40.25;35.00;23.50
29460;PMS7003;16428;47.836;35.106;2024-01-30T09:18:18;38.25;34.50;22.75
29460;PMS7003;16428;47.836;35.106;2024-01-30T09:20:45;37.00;33.00;23.50
29460;PMS7003;16428;47.836;35.106;2024-01-30T09:23:14;40.50;35.75;23.50
29460;PMS7003;16428;47.836;35.106;2024-01-30T09:25:41;37.00;30.25;21.75
29460;PMS7003;16428;47.836;35.106;2024-01-30T09:28:08;25.50;24.25;18.50
29460;PMS7003;16428;47.836;35.106;2024-01-30T09:30:36;36.00;29.00;22.50
29460;PMS7003;16428;47.836;35.106;2024-01-30T09:33:03;33.75;27.00;21.50
29460;PMS7003;16428;47.836;35.106;2024-01-30T09:35:30;31.25;28.00;18.50
29460;PMS7003;16428;47.836;35.106;2024-01-30T09:37:58;35.25;32.25;22.75
29460;PMS7003;16428;47.836;35.106;2024-01-30T09:40:25;37.25;34.75;23.75
29460;PMS7003;16428;47.836;35.106;2024-01-30T09:42:52;28.75;27.00;20.75
29460;PMS7003;16428;47.836;35.106;2024-01-30T09:45:24;36.00;28.50;18.25
29460;PMS7003;16428;47.836;35.106;2024-01-30T09:47:52;34.50;29.50;22.75
29460;PMS7003;16428;47.836;35.106;2024-01-30T09:50:20;35.25;31.25;20.00
29460;PMS7003;16428;47.836;35.106;2024-01-30T09:52:47;31.50;26.50;19.75
29460;PMS7003;16428;47.836;35.106;2024-01-30T09:55:14;24.75;23.25;18.50
29460;PMS7003;16428;47.836;35.106;2024-01-30T09:57:42;35.50;29.75;20.75
29460;PMS7003;16428;47.836;35.106;2024-01-30T10:00:09;37.50;30.25;23.00
29460;PMS7003;16428;47.836;35.106;2024-01-30T10:02:38;26.00;23.25;19.75
29460;PMS7003;16428;47.836;35.106;2024-01-30T10:05:05;30.50;21.75;13.00
29460;PMS7003;16428;47.836;35.106;2024-01-30T10:07:33;27.75;25.25;17.50
29460;PMS7003;16428;47.836;35.106;2024-01-30T10:10:01;28.75;25.00;16.50
29460;PMS7003;16428;47.836;35.106;2024-01-30T10:12:29;32.50;24.00;18.00
29460;PMS7003;16428;47.836;35.106;2024-01-30T10:14:56;30.75;25.75;20.00
29460;PMS7003;16428;47.836;35.106;2024-01-30T10:17:25;27.50;22.50;17.50
29460;PMS7003;16428;47.836;35.106;2024-01-30T10:19:59;32.00;23.25;18.50
29460;PMS7003;16428;47.836;35.106;2024-01-30T10:22:28;27.25;21.75;14.00
29460;PMS7003;16428;47.836;35.106;2024-01-30T10:24:56;36.00;28.25;20.50
29460;PMS7003;16428;47.836;35.106;2024-01-30T10:27:25;29.75;27.75;17.50
29460;PMS7003;16428;47.836;35.106;2024-01-30T10:29:53;31.75;26.75;20.75
29460;PMS7003;16428;47.836;35.106;2024-01-30T10:32:20;28.00;23.00;17.25
29460;PMS7003;16428;47.836;35.106;2024-01-30T10:34:48;24.25;24.00;16.75
29460;PMS7003;16428;47.836;35.106;2024-01-30T10:37:15;27.25;24.00;17.50
29460;PMS7003;16428;47.836;35.106;2024-01-30T10:39:44;35.00;28.25;18.75
29460;PMS7003;16428;47.836;35.106;2024-01-30T10:42:13;24.25;24.25;17.25
29460;PMS7003;16428;47.836;35.106;2024-01-30T10:45:25;23.00;22.75;17.75
29460;PMS7003;16428;47.836;35.106;2024-01-30T10:47:36;26.75;22.00;15.75
29460;PMS7003;16428;47.836;35.106;2024-01-30T10:50:04;35.25;27.25;19.50
29460;PMS7003;16428;47.836;35.106;2024-01-30T10:52:32;27.25;22.25;17.75
29460;PMS7003;16428;47.836;35.106;2024-01-30T10:55:00;27.25;22.00;16.75
29460;PMS7003;16428;47.836;35.106;2024-01-30T10:57:27;36.00;31.50;22.50
29460;PMS7003;16428;47.836;35.106;2024-01-30T10:59:55;17.75;17.50;15.25
29460;PMS7003;16428;47.836;35.106;2024-01-30T11:02:24;34.00;24.75;18.75
29460;PMS7003;16428;47.836;35.106;2024-01-30T11:04:58;24.50;23.00;16.75
29460;PMS7003;16428;47.836;35.106;2024-01-30T11:07:28;26.25;22.75;18.00
29460;PMS7003;16428;47.836;35.106;2024-01-30T11:12:30;27.50;25.25;19.25
29460;PMS7003;16428;47.836;35.106;2024-01-30T11:15:08;26.00;25.25;18.50
29460;PMS7003;16428;47.836;35.106;2024-01-30T11:20:11;34.50;27.00;17.75
29460;PMS7003;16428;47.836;35.106;2024-01-30T11:22:42;35.75;27.50;18.75
29460;PMS7003;16428;47.836;35.106;2024-01-30T11:25:15;37.75;29.50;18.25
29460;PMS7003;16428;47.836;35.106;2024-01-30T11:27:45;40.00;29.00;20.00
29460;PMS7003;16428;47.836;35.106;2024-01-30T11:30:23;31.75;25.00;20.00
29460;PMS7003;16428;47.836;35.106;2024-01-30T11:32:58;28.00;25.00;20.50
29460;PMS7003;16428;47.836;35.106;2024-01-30T11:35:41;34.00;30.00;20.25
29460;PMS7003;16428;47.836;35.106;2024-01-30T11:38:10;32.00;29.75;21.25
29460;PMS7003;16428;47.836;35.106;2024-01-30T11:40:38;36.00;26.50;17.25
29460;PMS7003;16428;47.836;35.106;2024-01-30T11:43:06;32.50;29.50;20.50
29460;PMS7003;16428;47.836;35.106;2024-01-30T11:45:35;23.75;22.50;18.00
29460;PMS7003;16428;47.836;35.106;2024-01-30T11:48:03;35.00;25.50;20.75
29460;PMS7003;16428;47.836;35.106;2024-01-30T11:50:32;24.00;23.25;15.75
29460;PMS7003;16428;47.836;35.106;2024-01-30T11:53:01;30.25;25.00;19.50
29460;PMS7003;16428;47.836;35.106;2024-01-30T11:55:29;29.25;23.50;15.75
29460;PMS7003;16428;47.836;35.106;2024-01-30T11:58:01;29.50;21.50;16.25
29460;PMS7003;16428;47.836;35.106;2024-01-30T12:00:29;23.75;21.25;16.75
29460;PMS7003;16428;47.836;35.106;2024-01-30T12:02:58;27.00;23.00;17.25
29460;PMS7003;16428;47.836;35.106;2024-01-30T12:05:28;25.75;22.50;18.00
29460;PMS7003;16428;47.836;35.106;2024-01-30T12:07:56;23.00;22.25;18.00
29460;PMS7003;16428;47.836;35.106;2024-01-30T12:10:27;29.75;26.25;19.25
29460;PMS7003;16428;47.836;35.106;2024-01-30T12:12:55;31.25;25.25;19.00
29460;PMS7003;16428;47.836;35.106;2024-01-30T12:15:24;94.75;80.25;49.00
29460;PMS7003;16428;47.836;35.106;2024-01-30T12:17:52;35.00;24.25;19.50
29460;PMS7003;16428;47.836;35.106;2024-01-30T12:20:19;31.25;27.75;21.00
29460;PMS7003;16428;47.836;35.106;2024-01-30T12:22:49;37.00;26.00;19.50
29460;PMS7003;16428;47.836;35.106;2024-01-30T12:25:18;29.00;28.75;18.75
29460;PMS7003;16428;47.836;35.106;2024-01-30T12:27:48;29.75;29.25;20.75
29460;PMS7003;16428;47.836;35.106;2024-01-30T12:30:19;33.00;28.00;20.00
29460;PMS7003;16428;47.836;35.106;2024-01-30T12:32:49;21.75;17.75;13.25
29460;PMS7003;16428;47.836;35.106;2024-01-30T12:35:18;33.75;24.25;16.25
29460;PMS7003;16428;47.836;35.106;2024-01-30T12:37:48;29.75;24.75;18.25
29460;PMS7003;16428;47.836;35.106;2024-01-30T12:40:16;35.00;21.75;14.00
29460;PMS7003;16428;47.836;35.106;2024-01-30T12:42:45;36.75;27.75;20.00
29460;PMS7003;16428;47.836;35.106;2024-01-30T12:45:16;19.00;15.00;10.50
29460;PMS7003;16428;47.836;35.106;2024-01-30T12:47:48;34.50;29.25;21.25
29460;PMS7003;16428;47.836;35.106;2024-01-30T12:50:15;28.25;25.50;21.25
29460;PMS7003;16428;47.836;35.106;2024-01-30T12:52:44;14.50;14.50;10.25
29460;PMS7003;16428;47.836;35.106;2024-01-30T12:55:16;18.00;18.00;13.25
29460;PMS7003;16428;47.836;35.106;2024-01-30T12:57:43;20.75;20.75;16.00
29460;PMS7003;16428;47.836;35.106;2024-01-30T13:00:11;26.75;26.50;20.50
29460;PMS7003;16428;47.836;35.106;2024-01-30T13:02:38;30.00;22.50;16.25
29460;PMS7003;16428;47.836;35.106;2024-01-30T13:05:06;24.50;21.75;17.50
29460;PMS7003;16428;47.836;35.106;2024-01-30T13:07:34;27.00;27.00;18.50
29460;PMS7003;16428;47.836;35.106;2024-01-30T13:10:02;25.50;21.00;16.50
29460;PMS7003;16428;47.836;35.106;2024-01-30T13:12:31;30.25;27.00;20.25
29460;PMS7003;16428;47.836;35.106;2024-01-30T13:15:00;26.25;23.00;17.25
29460;PMS7003;16428;47.836;35.106;2024-01-30T13:17:32;26.50;23.50;19.00
29460;PMS7003;16428;47.836;35.106;2024-01-30T13:20:00;26.75;25.75;19.25
29460;PMS7003;16428;47.836;35.106;2024-01-30T13:22:37;26.50;24.75;20.75
29460;PMS7003;16428;47.836;35.106;2024-01-30T13:25:06;44.25;37.75;27.50
29460;PMS7003;16428;47.836;35.106;2024-01-30T13:27:35;30.25;25.50;19.25
29460;PMS7003;16428;47.836;35.106;2024-01-30T13:30:03;28.75;25.75;18.00
29460;PMS7003;16428;47.836;35.106;2024-01-30T13:32:31;32.00;27.75;23.00
29460;PMS7003;16428;47.836;35.106;2024-01-30T13:34:58;27.00;25.50;22.25
29460;PMS7003;16428;47.836;35.106;2024-01-30T13:37:25;51.00;40.00;28.00
29460;PMS7003;16428;47.836;35.106;2024-01-30T13:39:53;43.50;39.50;27.50
29460;PMS7003;16428;47.836;35.106;2024-01-30T13:42:20;35.25;33.00;23.25
29460;PMS7003;16428;47.836;35.106;2024-01-30T13:44:47;56.75;45.75;33.50